createdAt,value
2022-12-17T00:00:27.616Z,90.48
2022-12-17T00:03:17.390Z,89.90
2022-12-17T00:06:03.133Z,90.04
2022-12-17T00:08:48.556Z,90.20
2022-12-17T00:11:33.949Z,89.92
2022-12-17T00:14:19.069Z,90.44
2022-12-17T00:17:03.921Z,90.81
2022-12-17T00:19:48.938Z,89.85
2022-12-17T00:22:34.021Z,91.32
2022-12-17T00:25:19.277Z,91.05
2022-12-17T00:28:04.520Z,91.59
2022-12-17T00:30:49.350Z,91.15
2022-12-17T00:33:34.873Z,90.82
2022-12-17T00:36:20.317Z,91.71
2022-12-17T00:39:05.076Z,91.01
2022-12-17T00:41:49.824Z,90.64
2022-12-17T00:44:34.887Z,91.04
2022-12-17T00:47:19.738Z,90.85
2022-12-17T00:50:04.579Z,91.38
2022-12-17T00:52:49.715Z,90.37
2022-12-17T00:55:35.144Z,90.12
2022-12-17T00:58:20.564Z,90.40
2022-12-17T01:01:05.747Z,91.03
2022-12-17T01:03:51.246Z,90.47
2022-12-17T01:06:37.016Z,91.22
2022-12-17T01:09:22.135Z,90.82
2022-12-17T01:12:06.989Z,90.27
2022-12-17T01:14:52.267Z,90.53
2022-12-17T01:17:37.455Z,90.34
2022-12-17T01:20:23.117Z,91.51
2022-12-17T01:23:12.811Z,90.72
2022-12-17T01:25:57.885Z,90.99
2022-12-17T01:28:45.257Z,90.69
2022-12-17T01:31:38.126Z,91.16
2022-12-17T01:34:23.390Z,91.03
2022-12-17T01:37:08.229Z,90.06
2022-12-17T01:39:53.311Z,90.08
2022-12-17T01:42:38.807Z,89.71
2022-12-17T01:45:29.215Z,90.18
2022-12-17T01:48:22.096Z,90.63
2022-12-17T01:51:12.099Z,89.61
2022-12-17T01:54:06.336Z,89.94
2022-12-17T01:56:52.784Z,89.94
2022-12-17T01:59:45.978Z,90.34
2022-12-17T02:02:31.029Z,90.03
2022-12-17T02:05:16.337Z,89.52
2022-12-17T02:08:29.584Z,89.50
2022-12-17T02:11:44.865Z,89.24
2022-12-17T02:15:02.538Z,89.62
2022-12-17T02:17:56.381Z,89.64
2022-12-17T02:20:49.180Z,89.39
2022-12-17T02:24:12.777Z,88.70
2022-12-17T02:27:03.781Z,87.94
2022-12-17T02:30:00.857Z,87.98
2022-12-17T02:32:47.071Z,87.18
2022-12-17T02:35:36.475Z,86.88
2022-12-17T02:38:35.231Z,86.41
2022-12-17T02:41:23.138Z,86.25
2022-12-17T02:44:10.083Z,86.69
2022-12-17T02:46:57.186Z,85.88
2022-12-17T02:49:42.669Z,85.82
2022-12-17T02:52:33.307Z,85.78
2022-12-17T02:55:20.236Z,85.55
2022-12-17T02:58:05.112Z,85.24
2022-12-17T03:00:50.361Z,84.95
2022-12-17T03:03:35.873Z,84.36
2022-12-17T03:06:21.239Z,84.30
2022-12-17T03:09:06.095Z,84.30
2022-12-17T03:11:51.404Z,84.38
2022-12-17T03:14:36.235Z,83.75
2022-12-17T03:17:21.973Z,83.67
2022-12-17T03:20:06.777Z,83.38
2022-12-17T03:22:51.974Z,82.84
2022-12-17T03:25:37.144Z,83.76
2022-12-17T03:28:27.726Z,83.97
2022-12-17T03:31:13.031Z,83.38
2022-12-17T03:34:05.962Z,83.69
2022-12-17T03:36:51.065Z,83.62
2022-12-17T03:39:36.232Z,83.16
2022-12-17T03:42:21.744Z,83.22
2022-12-17T03:45:06.728Z,83.00
2022-12-17T03:47:51.534Z,82.68
2022-12-17T03:50:36.740Z,83.14
2022-12-17T03:53:23.933Z,83.47
2022-12-17T03:56:09.014Z,83.83
2022-12-17T03:58:53.786Z,83.04
2022-12-17T04:01:38.868Z,82.96
2022-12-17T04:04:23.806Z,82.24
2022-12-17T04:07:09.917Z,82.59
2022-12-17T04:09:54.936Z,82.10
2022-12-17T04:12:40.403Z,82.97
2022-12-17T04:15:25.947Z,81.99
2022-12-17T04:18:11.112Z,82.63
2022-12-17T04:20:56.525Z,82.37
2022-12-17T04:23:41.860Z,82.21
2022-12-17T04:26:26.930Z,82.62
2022-12-17T04:29:12.014Z,82.68
2022-12-17T04:31:56.713Z,83.07
2022-12-17T04:34:41.781Z,82.86
2022-12-17T04:37:26.903Z,82.41
2022-12-17T04:40:11.915Z,82.47
2022-12-17T04:43:10.509Z,82.64
2022-12-17T04:45:56.647Z,82.99
2022-12-17T04:48:41.680Z,82.47
2022-12-17T04:51:27.071Z,82.40
2022-12-17T04:54:12.069Z,81.92
2022-12-17T04:56:56.873Z,82.07
2022-12-17T04:59:41.893Z,82.12
2022-12-17T05:02:26.961Z,81.13
2022-12-17T05:05:12.269Z,82.49
2022-12-17T05:07:57.118Z,82.26
2022-12-17T05:10:42.416Z,82.62
2022-12-17T05:13:29.011Z,82.71
2022-12-17T05:16:14.957Z,82.69
2022-12-17T05:19:00.094Z,83.42
2022-12-17T05:21:45.396Z,83.41
2022-12-17T05:24:41.157Z,82.80
2022-12-17T05:27:26.470Z,83.71
2022-12-17T05:30:11.792Z,83.63
2022-12-17T05:32:57.104Z,83.55
2022-12-17T05:35:42.165Z,83.10
2022-12-17T05:38:29.309Z,82.91
2022-12-17T05:41:18.797Z,82.42
2022-12-17T05:44:04.165Z,82.89
2022-12-17T05:46:49.085Z,83.42
2022-12-17T05:49:34.334Z,83.66
2022-12-17T05:52:19.468Z,83.07
2022-12-17T05:55:04.343Z,83.87
2022-12-17T05:57:54.580Z,83.06
2022-12-17T06:00:41.783Z,83.65
2022-12-17T06:03:28.035Z,84.15
2022-12-17T06:06:14.886Z,83.84
2022-12-17T06:09:00.609Z,83.21
2022-12-17T06:11:45.893Z,83.71
2022-12-17T06:14:30.831Z,83.57
2022-12-17T06:17:15.713Z,82.41
2022-12-17T06:20:00.794Z,83.12
2022-12-17T06:22:45.991Z,83.33
2022-12-17T06:25:31.459Z,82.23
2022-12-17T06:28:20.756Z,83.37
2022-12-17T06:31:10.603Z,83.87
2022-12-17T06:33:56.457Z,84.60
2022-12-17T06:36:41.888Z,83.13
2022-12-17T06:39:27.617Z,82.79
2022-12-17T06:42:12.476Z,84.23
2022-12-17T06:44:58.303Z,84.39
2022-12-17T06:47:43.772Z,83.99
2022-12-17T06:50:28.720Z,84.38
2022-12-17T06:53:22.385Z,84.61
2022-12-17T06:56:07.324Z,85.29
2022-12-17T06:58:52.972Z,84.43
2022-12-17T07:01:38.343Z,84.84
2022-12-17T07:04:24.451Z,84.90
2022-12-17T07:07:09.314Z,84.45
2022-12-17T07:09:54.320Z,85.18
2022-12-17T07:12:39.244Z,84.97
2022-12-17T07:15:24.886Z,84.78
2022-12-17T07:18:17.009Z,83.94
2022-12-17T07:21:02.302Z,83.91
2022-12-17T07:23:47.543Z,84.70
2022-12-17T07:26:33.179Z,84.34
2022-12-17T07:29:17.916Z,84.27
2022-12-17T07:32:02.977Z,83.63
2022-12-17T07:34:48.091Z,83.99
2022-12-17T07:37:33.652Z,84.60
2022-12-17T07:40:18.741Z,82.88
2022-12-17T07:43:03.759Z,83.12
2022-12-17T07:45:48.621Z,82.83
2022-12-17T07:48:33.796Z,81.26
2022-12-17T07:51:18.930Z,82.08
2022-12-17T07:54:05.011Z,82.31
2022-12-17T07:56:50.093Z,83.15
2022-12-17T07:59:35.035Z,81.60
2022-12-17T08:02:20.791Z,81.74
2022-12-17T08:05:06.328Z,81.30
2022-12-17T08:07:51.113Z,81.40
2022-12-17T08:10:36.515Z,81.24
2022-12-17T08:13:23.686Z,81.14
2022-12-17T08:16:11.949Z,81.85
2022-12-17T08:18:57.494Z,81.09
2022-12-17T08:21:43.029Z,80.73
2022-12-17T08:24:27.985Z,80.29
2022-12-17T08:27:13.392Z,79.42
2022-12-17T08:29:58.348Z,79.90
2022-12-17T08:32:44.095Z,80.20
2022-12-17T08:35:29.207Z,80.25
2022-12-17T08:38:20.761Z,79.67
2022-12-17T08:41:05.656Z,79.03
2022-12-17T08:43:50.527Z,79.32
2022-12-17T08:46:35.994Z,78.63
2022-12-17T08:49:21.432Z,78.61
2022-12-17T08:52:06.838Z,80.16
2022-12-17T08:54:51.968Z,79.24
2022-12-17T08:57:36.720Z,78.51
2022-12-17T09:00:22.845Z,78.38
2022-12-17T09:03:07.805Z,77.74
2022-12-17T09:05:53.044Z,77.73
2022-12-17T09:08:38.250Z,77.21
2022-12-17T09:11:24.133Z,75.93
2022-12-17T09:14:09.271Z,76.44
2022-12-17T09:16:54.496Z,75.66
2022-12-17T09:19:39.709Z,76.05
2022-12-17T09:22:25.167Z,77.19
2022-12-17T09:25:10.220Z,76.54
2022-12-17T09:27:55.488Z,75.58
2022-12-17T09:30:40.809Z,75.44
2022-12-17T09:33:26.105Z,74.24
2022-12-17T09:36:11.158Z,74.58
2022-12-17T09:38:57.693Z,75.51
2022-12-17T09:41:51.261Z,75.14
2022-12-17T09:44:43.673Z,75.26
2022-12-17T09:47:53.263Z,74.24
2022-12-17T09:50:38.909Z,74.05
2022-12-17T09:53:47.148Z,73.51
2022-12-17T09:56:34.189Z,73.25
2022-12-17T09:59:18.996Z,73.19
2022-12-17T10:02:04.016Z,72.40
2022-12-17T10:04:57.206Z,71.89
2022-12-17T10:07:45.798Z,73.50
2022-12-17T10:10:40.834Z,74.81
2022-12-17T10:13:44.234Z,72.95
2022-12-17T10:16:56.662Z,74.23
2022-12-17T10:19:50.211Z,75.04
2022-12-17T10:22:39.391Z,73.82
2022-12-17T10:25:40.055Z,73.95
2022-12-17T10:28:31.088Z,73.52
2022-12-17T10:31:17.228Z,73.39
2022-12-17T10:34:03.579Z,74.02
2022-12-17T10:36:49.121Z,73.32
2022-12-17T10:39:38.608Z,71.96
2022-12-17T10:42:39.442Z,71.29
2022-12-17T10:45:53.505Z,72.62
2022-12-17T10:48:47.318Z,72.16
2022-12-17T10:51:52.185Z,71.86
2022-12-17T10:54:49.323Z,71.52
2022-12-17T10:57:54.564Z,72.80
2022-12-17T11:00:51.795Z,71.83
2022-12-17T11:03:47.893Z,73.14
2022-12-17T11:06:44.198Z,75.20
2022-12-17T11:09:40.181Z,73.57
2022-12-17T11:12:30.798Z,73.88
2022-12-17T11:15:19.848Z,72.30
2022-12-17T11:18:11.099Z,73.10
2022-12-17T11:21:09.299Z,74.65
2022-12-17T11:23:58.822Z,73.74
2022-12-17T11:26:45.745Z,74.77
2022-12-17T11:29:33.164Z,74.95
2022-12-17T11:32:36.018Z,76.18
2022-12-17T11:35:37.630Z,76.44
2022-12-17T11:38:48.882Z,76.85
2022-12-17T11:41:45.280Z,75.88
2022-12-17T11:44:57.286Z,73.51
2022-12-17T11:48:15.113Z,72.97
2022-12-17T11:51:06.780Z,74.47
2022-12-17T11:54:13.801Z,74.13
2022-12-17T11:57:04.100Z,76.07
2022-12-17T11:59:58.259Z,75.63
2022-12-17T12:02:56.130Z,76.97
2022-12-17T12:05:52.030Z,76.60
2022-12-17T12:08:45.069Z,76.33
2022-12-17T12:11:41.772Z,74.73
2022-12-17T12:14:45.938Z,75.38
2022-12-17T12:17:36.815Z,73.92
2022-12-17T12:20:40.845Z,75.10
2022-12-17T12:23:44.175Z,74.85
2022-12-17T12:26:39.797Z,73.94
2022-12-17T12:29:40.488Z,73.92
2022-12-17T12:32:40.345Z,73.66
2022-12-17T12:35:33.857Z,74.22
2022-12-17T12:38:20.605Z,72.77
2022-12-17T12:41:14.926Z,72.93
2022-12-17T12:44:07.205Z,73.27
2022-12-17T12:47:07.865Z,74.28
2022-12-17T12:50:01.593Z,72.68
2022-12-17T12:52:47.463Z,72.34
2022-12-17T12:55:32.833Z,73.20
2022-12-17T12:58:23.469Z,74.21
2022-12-17T13:01:08.470Z,72.80
2022-12-17T13:04:18.739Z,73.91
2022-12-17T13:06:52.665Z,75.45
2022-12-17T13:09:32.262Z,76.31
2022-12-17T13:12:00.602Z,75.06
2022-12-17T13:14:51.050Z,75.29
2022-12-17T13:17:17.485Z,75.61
2022-12-17T13:20:05.749Z,74.81
2022-12-17T13:22:33.850Z,76.16
2022-12-17T13:25:16.075Z,76.99
2022-12-17T13:27:43.558Z,77.16
2022-12-17T13:30:21.662Z,77.92
2022-12-17T13:33:00.281Z,79.08
2022-12-17T13:35:29.688Z,77.37
2022-12-17T13:38:10.550Z,77.72
2022-12-17T13:40:44.352Z,78.16
2022-12-17T13:43:19.644Z,78.40
2022-12-17T13:45:47.106Z,77.58
2022-12-17T13:48:25.811Z,76.81
2022-12-17T13:51:00.304Z,78.09
2022-12-17T13:53:28.792Z,79.80
2022-12-17T13:55:56.863Z,78.68
2022-12-17T13:58:28.447Z,79.53
2022-12-17T14:01:10.926Z,78.98
2022-12-17T14:06:32.231Z,78.83
2022-12-17T14:08:59.207Z,79.44
2022-12-17T14:11:45.417Z,79.31
2022-12-17T14:14:38.128Z,79.64
2022-12-17T14:17:04.958Z,80.06
2022-12-17T14:19:32.649Z,81.70
2022-12-17T14:22:00.296Z,80.71
2022-12-17T14:24:29.498Z,80.24
2022-12-17T14:26:59.701Z,79.37
2022-12-17T14:29:29.455Z,80.00
2022-12-17T14:31:59.773Z,79.49
2022-12-17T14:34:26.813Z,79.42
2022-12-17T14:36:59.619Z,80.75
2022-12-17T14:39:32.513Z,81.58
2022-12-17T14:42:26.133Z,80.51
2022-12-17T14:45:00.104Z,80.36
2022-12-17T14:47:32.244Z,80.43
2022-12-17T14:50:07.107Z,79.90
2022-12-17T14:52:39.141Z,79.93
2022-12-17T14:55:33.268Z,81.03
2022-12-17T14:58:12.168Z,82.31
2022-12-17T15:00:46.914Z,81.00
2022-12-17T15:03:27.551Z,81.47
2022-12-17T15:06:01.053Z,82.28
2022-12-17T15:08:32.209Z,81.57
2022-12-17T15:10:58.752Z,80.52
2022-12-17T15:13:25.355Z,81.34
2022-12-17T15:15:52.360Z,81.58
2022-12-17T15:18:18.889Z,82.25
2022-12-17T15:20:45.496Z,82.76
2022-12-17T15:23:17.997Z,82.70
2022-12-17T15:25:47.183Z,83.33
2022-12-17T15:28:14.433Z,83.80
2022-12-17T15:30:41.355Z,83.77
2022-12-17T15:33:08.946Z,82.81
2022-12-17T15:35:36.112Z,82.79
2022-12-17T15:38:03.449Z,81.86
2022-12-17T15:40:30.137Z,81.82
2022-12-17T15:43:12.339Z,82.95
2022-12-17T15:45:40.652Z,82.82
2022-12-17T15:48:07.369Z,82.72
2022-12-17T15:50:34.335Z,82.13
2022-12-17T15:53:01.028Z,82.69
2022-12-17T15:55:28.192Z,82.57
2022-12-17T15:57:54.936Z,81.43
2022-12-17T16:00:21.705Z,80.99
2022-12-17T16:02:49.679Z,82.27
2022-12-17T16:05:17.146Z,82.14
2022-12-17T16:07:43.762Z,82.09
2022-12-17T16:10:12.258Z,82.98
2022-12-17T16:12:39.426Z,82.03
2022-12-17T16:15:08.088Z,83.05
2022-12-17T16:17:35.558Z,82.74
2022-12-17T16:20:02.804Z,82.06
2022-12-17T16:22:29.401Z,82.26
2022-12-17T16:24:55.989Z,83.43
2022-12-17T16:27:22.712Z,83.15
2022-12-17T16:29:49.335Z,82.90
2022-12-17T16:32:16.802Z,84.14
2022-12-17T16:34:44.129Z,83.82
2022-12-17T16:37:11.014Z,84.41
2022-12-17T16:39:37.549Z,83.95
2022-12-17T16:42:04.497Z,83.44
2022-12-17T16:44:31.128Z,83.64
2022-12-17T16:46:57.982Z,84.58
2022-12-17T16:49:26.945Z,83.53
2022-12-17T16:51:55.221Z,82.72
2022-12-17T16:54:26.508Z,84.27
2022-12-17T16:56:54.105Z,83.71
2022-12-17T16:59:21.972Z,83.29
2022-12-17T17:01:50.516Z,84.08
2022-12-17T17:04:19.400Z,82.31
2022-12-17T17:06:48.930Z,83.13
2022-12-17T17:09:16.660Z,83.54
2022-12-17T17:11:48.132Z,83.70
2022-12-17T17:14:17.926Z,84.54
2022-12-17T17:16:44.604Z,84.57
2022-12-17T17:19:11.133Z,84.01
2022-12-17T17:21:40.929Z,83.72
2022-12-17T17:24:18.439Z,84.00
2022-12-17T17:26:46.241Z,84.40
2022-12-17T17:29:12.842Z,84.24
2022-12-17T17:32:09.287Z,83.41
2022-12-17T17:34:26.328Z,84.28
2022-12-17T17:36:52.864Z,83.70
2022-12-17T17:39:19.412Z,83.62
2022-12-17T17:41:46.142Z,83.95
2022-12-17T17:44:15.205Z,83.45
2022-12-17T17:46:42.398Z,83.99
2022-12-17T17:49:09.987Z,84.18
2022-12-17T17:52:08.397Z,83.12
2022-12-17T17:54:25.579Z,83.66
2022-12-17T17:56:52.147Z,82.75
2022-12-17T17:59:19.584Z,82.39
2022-12-17T18:01:51.778Z,82.24
2022-12-17T18:04:21.285Z,82.75
2022-12-17T18:07:23.221Z,82.55
2022-12-17T18:09:35.713Z,82.94
2022-12-17T18:12:22.816Z,83.01
2022-12-17T18:15:12.502Z,83.08
2022-12-17T18:17:36.326Z,83.66
2022-12-17T18:20:03.124Z,82.62
2022-12-17T18:22:29.622Z,82.60
2022-12-17T18:24:56.119Z,82.18
2022-12-17T18:27:22.857Z,83.09
2022-12-17T18:29:49.378Z,83.75
2022-12-17T18:32:15.904Z,83.95
2022-12-17T18:34:42.651Z,82.43
2022-12-17T18:37:09.277Z,83.60
2022-12-17T18:39:35.936Z,83.64
2022-12-17T18:42:21.219Z,84.16
2022-12-17T18:44:47.762Z,84.56
2022-12-17T18:47:14.413Z,83.24
2022-12-17T18:49:41.148Z,83.79
2022-12-17T18:52:11.717Z,83.94
2022-12-17T18:54:41.431Z,82.99
2022-12-17T18:57:08.009Z,81.86
2022-12-17T18:59:34.757Z,82.42
2022-12-17T19:02:01.859Z,83.47
2022-12-17T19:04:28.665Z,82.73
2022-12-17T19:06:55.406Z,83.84
2022-12-17T19:09:23.449Z,82.31
2022-12-17T19:11:50.938Z,82.68
2022-12-17T19:14:17.953Z,82.91
2022-12-17T19:16:45.231Z,83.93
2022-12-17T19:19:12.873Z,84.23
2022-12-17T19:21:39.898Z,82.97
2022-12-17T19:24:08.598Z,81.61
2022-12-17T19:26:36.204Z,82.90
2022-12-17T19:29:03.184Z,82.48
2022-12-17T19:31:31.607Z,82.01
2022-12-17T19:34:00.108Z,82.74
2022-12-17T19:36:28.848Z,83.40
2022-12-17T19:38:58.100Z,83.13
2022-12-17T19:41:26.029Z,83.49
2022-12-17T19:43:58.402Z,83.77
2022-12-17T19:46:26.400Z,82.01
2022-12-17T19:48:53.062Z,82.95
2022-12-17T19:51:22.568Z,82.00
2022-12-17T19:53:49.663Z,81.08
2022-12-17T19:56:20.653Z,82.04
2022-12-17T19:58:53.220Z,82.88
2022-12-17T20:01:23.045Z,82.20
2022-12-17T20:03:50.367Z,82.58
2022-12-17T20:06:19.228Z,82.89
2022-12-17T20:08:45.753Z,82.39
2022-12-17T20:11:32.928Z,82.08
2022-12-17T20:14:00.879Z,81.22
2022-12-17T20:16:28.496Z,81.04
2022-12-17T20:18:55.397Z,81.32
2022-12-17T20:21:21.996Z,82.82
2022-12-17T20:23:49.218Z,82.64
2022-12-17T20:26:16.944Z,81.87
2022-12-17T20:28:43.773Z,81.89
2022-12-17T20:31:10.464Z,82.53
2022-12-17T20:33:37.344Z,82.19
2022-12-17T20:36:10.520Z,81.43
2022-12-17T20:38:37.688Z,81.23
2022-12-17T20:41:22.045Z,82.46
2022-12-17T20:43:49.762Z,81.32
2022-12-17T20:46:18.487Z,82.63
2022-12-17T20:48:45.975Z,83.27
2022-12-17T20:51:16.306Z,81.71
2022-12-17T20:53:44.702Z,82.16
2022-12-17T20:56:14.705Z,82.59
2022-12-17T20:58:43.024Z,82.69
2022-12-17T21:01:20.013Z,83.04
2022-12-17T21:03:49.511Z,82.18
2022-12-17T21:06:26.086Z,82.64
2022-12-17T21:08:54.205Z,82.26
2022-12-17T21:11:24.217Z,83.07
2022-12-17T21:13:51.356Z,82.90
2022-12-17T21:16:24.069Z,83.64
2022-12-17T21:18:50.816Z,83.02
2022-12-17T21:21:19.886Z,82.57
2022-12-17T21:23:47.796Z,83.94
2022-12-17T21:26:17.234Z,84.26
2022-12-17T21:28:45.989Z,84.03
2022-12-17T21:31:21.442Z,84.65
2022-12-17T21:33:49.250Z,82.81
2022-12-17T21:36:17.769Z,82.58
2022-12-17T21:38:45.044Z,82.27
2022-12-17T21:41:14.594Z,83.35
2022-12-17T21:43:41.522Z,83.49
2022-12-17T21:46:09.908Z,83.05
2022-12-17T21:48:42.459Z,84.30
2022-12-17T21:51:12.073Z,84.59
2022-12-17T21:53:42.675Z,83.22
2022-12-17T21:56:18.964Z,84.10
2022-12-17T21:58:46.934Z,83.36
2022-12-17T22:01:19.479Z,83.21
2022-12-17T22:03:54.259Z,82.14
2022-12-17T22:06:25.880Z,80.98
2022-12-17T22:09:00.832Z,79.01
2022-12-17T22:11:36.373Z,79.05
2022-12-17T22:14:08.060Z,80.83
2022-12-17T22:16:46.963Z,82.52
2022-12-17T22:19:22.952Z,82.59
2022-12-17T22:21:54.986Z,81.71
2022-12-17T22:24:25.654Z,81.45
2022-12-17T22:26:59.497Z,81.44
2022-12-17T22:29:45.617Z,81.38
2022-12-17T22:32:31.084Z,80.16
2022-12-17T22:36:09.236Z,80.12
2022-12-17T22:40:11.045Z,81.58
2022-12-17T22:44:35.785Z,82.71
2022-12-17T22:44:37.807Z,82.69
2022-12-17T22:46:17.141Z,82.33
2022-12-17T22:48:43.851Z,81.03
2022-12-17T22:51:12.188Z,81.00
2022-12-17T22:53:40.878Z,82.66
2022-12-17T22:56:19.710Z,82.39
2022-12-17T22:58:54.898Z,83.20
2022-12-17T23:01:23.395Z,82.03
2022-12-17T23:03:53.820Z,81.79
2022-12-17T23:06:21.171Z,81.45
2022-12-17T23:08:47.753Z,80.56
2022-12-17T23:11:21.784Z,82.46
2022-12-17T23:13:48.519Z,80.80
2022-12-17T23:16:16.166Z,80.08
2022-12-17T23:18:44.724Z,81.11
2022-12-17T23:21:14.367Z,79.82
2022-12-17T23:23:42.105Z,80.89
2022-12-17T23:26:11.491Z,78.82
2022-12-17T23:28:38.040Z,81.05
2022-12-17T23:31:12.127Z,80.22
2022-12-17T23:33:39.723Z,80.09
2022-12-17T23:36:26.674Z,79.30
2022-12-17T23:38:55.776Z,80.82
2022-12-17T23:41:27.337Z,79.91
2022-12-17T23:43:54.454Z,81.06
2022-12-17T23:46:22.254Z,78.91
2022-12-17T23:48:49.521Z,79.04
2022-12-17T23:51:18.177Z,80.18
2022-12-17T23:53:45.009Z,81.54
2022-12-17T23:56:21.467Z,82.36
2022-12-17T23:58:51.726Z,82.75
